Time;durP1;ratioP1;P1;durP2;ratioP2;P2;SDS_P1;SDS_P2;PMS_P1;PMS_P2;Temp;Humidity;BMP_temperature;BMP_pressure;BME280_temperature;BME280_humidity;BME280_pressure;Samples;Min_cycle;Max_cycle;Signal;HPM_P1;HPM_P2
2023/06/13 00:01:35;;;;;;;12.00;7.03;;;;;;;23.16;33.84;101231.25;5114806;28;20031;-60
2023/06/13 00:04:02;;;;;;;10.25;6.80;;;;;;;23.17;34.03;101227.50;5115317;28;20051;-60
2023/06/13 00:06:29;;;;;;;9.45;6.65;;;;;;;23.09;33.74;101225.66;5114654;28;20066;-61
2023/06/13 00:08:56;;;;;;;11.18;6.57;;;;;;;23.00;34.07;101223.09;5115397;28;20030;-61
2023/06/13 00:11:21;;;;;;;12.25;6.72;;;;;;;23.05;33.88;101226.16;5115306;28;20020;-61
2023/06/13 00:13:49;;;;;;;8.07;6.63;;;;;;;22.87;35.11;101219.00;5088445;28;20053;-61
2023/06/13 00:16:15;;;;;;;11.32;7.10;;;;;;;22.88;34.72;101218.00;5114480;28;20119;-60
2023/06/13 00:18:40;;;;;;;12.20;6.93;;;;;;;22.94;34.30;101227.31;5114303;28;20035;-61
2023/06/13 00:21:09;;;;;;;7.50;6.40;;;;;;;22.80;34.54;101220.69;5099738;28;20016;-60
2023/06/13 00:23:34;;;;;;;12.30;6.60;;;;;;;22.80;34.58;101219.84;5095894;28;20024;-60
2023/06/13 00:25:59;;;;;;;14.23;6.82;;;;;;;22.79;35.27;101215.44;5096719;28;20042;-60
2023/06/13 00:28:25;;;;;;;11.27;7.03;;;;;;;22.77;34.39;101212.06;5115035;28;20019;-60
2023/06/13 00:30:51;;;;;;;10.43;6.72;;;;;;;22.63;35.13;101214.38;5114140;28;20041;-60
2023/06/13 00:33:17;;;;;;;7.65;6.03;;;;;;;22.66;34.76;101207.78;5115008;28;20106;-61
2023/06/13 00:35:46;;;;;;;9.70;6.82;;;;;;;22.63;35.03;101218.97;5105145;28;20023;-60
2023/06/13 00:38:12;;;;;;;9.23;6.60;;;;;;;22.63;35.34;101221.69;5095148;28;20255;-60
2023/06/13 00:40:39;;;;;;;14.23;7.35;;;;;;;22.59;34.93;101225.72;5114503;28;20578;-60
2023/06/13 00:43:04;;;;;;;10.90;7.00;;;;;;;22.48;34.85;101216.06;5096524;28;20381;-60
2023/06/13 00:45:32;;;;;;;7.28;6.20;;;;;;;22.49;35.25;101217.75;5113882;28;20022;-60
2023/06/13 00:48:01;;;;;;;8.60;6.30;;;;;;;22.41;35.19;101215.88;5114675;28;20153;-60
2023/06/13 00:50:28;;;;;;;;;;;;;;;22.63;35.07;101216.25;5113868;28;20023;-60
2023/06/13 00:52:55;;;;;;;7.32;6.22;;;;;;;22.48;35.76;101213.34;5114544;28;19907;-61
2023/06/13 00:55:22;;;;;;;7.75;6.18;;;;;;;22.37;35.47;101208.22;5096337;28;20039;-60
2023/06/13 00:57:51;;;;;;;9.43;6.50;;;;;;;22.32;36.17;101216.00;5103515;28;20120;-61
2023/06/13 01:00:18;;;;;;;12.27;6.75;;;;;;;22.26;35.91;101200.41;5093254;28;20169;-61
2023/06/13 01:02:44;;;;;;;9.35;6.55;;;;;;;22.30;35.74;101216.19;5093727;28;20031;-61
2023/06/13 01:05:11;;;;;;;15.00;6.85;;;;;;;22.11;37.01;101202.84;5093880;28;20020;-61
2023/06/13 01:07:38;;;;;;;7.60;6.00;;;;;;;22.17;36.59;101211.19;5109258;28;20032;-60
2023/06/13 01:10:05;;;;;;;7.60;6.25;;;;;;;22.05;36.82;101208.94;5109363;28;20387;-60
2023/06/13 01:12:36;;;;;;;8.43;6.80;;;;;;;22.03;36.29;101213.66;5093410;28;20107;-60
2023/06/13 01:15:14;;;;;;;8.07;6.07;;;;;;;22.00;36.27;101204.84;5093288;28;20028;-60
2023/06/13 01:17:44;;;;;;;8.15;6.60;;;;;;;21.90;36.44;101206.81;5093706;28;20544;-60
2023/06/13 01:20:14;;;;;;;6.60;5.97;;;;;;;21.85;36.90;101206.47;5106199;28;20077;-60
2023/06/13 01:22:54;;;;;;;7.75;5.70;;;;;;;21.90;36.58;101201.41;5098267;28;20122;-61
2023/06/13 01:25:40;;;;;;;9.73;6.32;;;;;;;21.89;36.52;101207.84;5113849;28;20027;-61
2023/06/13 01:28:06;;;;;;;7.43;6.40;;;;;;;21.83;37.32;101207.66;5113625;28;20084;-60
2023/06/13 01:30:37;;;;;;;12.73;5.85;;;;;;;21.67;38.01;101208.41;5110635;28;20031;-60
2023/06/13 01:33:06;;;;;;;10.10;6.38;;;;;;;21.48;38.77;101191.38;5093352;28;20028;-60
2023/06/13 01:35:32;;;;;;;10.40;6.78;;;;;;;21.51;38.44;101207.28;5093157;28;20035;-60
2023/06/13 01:37:57;;;;;;;9.10;6.05;;;;;;;21.57;37.95;101213.09;5093600;28;20383;-60
2023/06/13 01:40:23;;;;;;;9.55;6.60;;;;;;;21.43;38.52;101193.69;5093055;28;20491;-60
2023/06/13 01:42:48;;;;;;;8.93;6.18;;;;;;;21.45;38.58;101204.38;5074878;28;20028;-60
2023/06/13 01:45:14;;;;;;;8.40;6.75;;;;;;;21.25;38.72;101201.84;5092757;28;20482;-60
2023/06/13 01:48:02;;;;;;;10.95;6.22;;;;;;;21.32;38.67;101207.47;5074983;28;20027;-60
2023/06/13 01:50:31;;;;;;;11.38;6.32;;;;;;;21.21;39.02;101196.91;5108881;28;20378;-60
2023/06/13 01:53:06;;;;;;;7.05;5.88;;;;;;;21.30;38.75;101202.22;5098537;28;20115;-60
2023/06/13 01:55:51;;;;;;;11.15;6.65;;;;;;;21.22;38.81;101204.84;5113220;28;20032;-60
2023/06/13 01:58:24;;;;;;;8.43;5.88;;;;;;;21.14;38.83;101195.81;5113313;28;20038;-60
2023/06/13 02:00:55;;;;;;;8.07;6.68;;;;;;;20.90;39.41;101189.22;5112903;28;20023;-60
2023/06/13 02:03:24;;;;;;;13.00;6.15;;;;;;;21.03;38.99;101192.38;5102221;28;20035;-60
2023/06/13 02:05:52;;;;;;;11.05;6.00;;;;;;;20.96;39.36;101195.84;5113174;28;20020;-60
2023/06/13 02:08:18;;;;;;;10.07;6.18;;;;;;;20.76;39.94;101190.59;5113254;28;20140;-60
2023/06/13 02:10:44;;;;;;;11.52;6.35;;;;;;;20.58;40.84;101198.69;5093892;28;20114;-60
2023/06/13 02:13:09;;;;;;;8.90;6.00;;;;;;;20.70;40.36;101202.03;5112479;28;20023;-60
2023/06/13 02:15:35;;;;;;;9.43;6.60;;;;;;;20.70;40.10;101191.22;5112533;28;20030;-60
2023/06/13 02:18:02;;;;;;;11.52;6.25;;;;;;;20.67;39.94;101196.09;5107322;28;20510;-61
2023/06/13 02:20:30;;;;;;;8.32;6.13;;;;;;;20.61;40.00;101192.16;5074478;28;20020;-60
2023/06/13 02:22:56;;;;;;;12.98;6.40;;;;;;;20.47;40.97;101193.50;5095632;28;20019;-60
2023/06/13 02:25:22;;;;;;;9.07;6.68;;;;;;;20.53;40.46;101197.47;5112506;28;20107;-60
2023/06/13 02:27:50;;;;;;;10.52;7.28;;;;;;;20.44;40.71;101196.50;5094327;28;20122;-60
2023/06/13 02:30:16;;;;;;;8.68;6.13;;;;;;;20.54;40.80;101200.03;5093902;28;20081;-60
2023/06/13 02:32:41;;;;;;;8.10;6.38;;;;;;;20.43;40.69;101200.22;5094278;28;20431;-60
2023/06/13 02:35:08;;;;;;;10.35;6.63;;;;;;;20.59;40.39;101192.31;5112589;28;20042;-60
2023/06/13 02:37:33;;;;;;;7.50;6.70;;;;;;;20.33;41.33;101199.44;5111950;28;20073;-60
2023/06/13 02:39:59;;;;;;;7.40;6.13;;;;;;;20.30;41.57;101192.47;5112058;28;20044;-60
2023/06/13 02:42:26;;;;;;;9.40;6.22;;;;;;;20.26;41.29;101203.72;5110896;28;20055;-60
2023/06/13 02:44:54;;;;;;;8.63;6.55;;;;;;;20.33;40.79;101202.13;5074693;28;20047;-60
2023/06/13 02:47:21;;;;;;;9.00;6.63;;;;;;;20.16;41.87;101203.78;5092409;28;20095;-61
2023/06/13 02:49:46;;;;;;;7.72;5.68;;;;;;;20.09;41.90;101205.38;5092062;28;20020;-60
2023/06/13 02:52:12;;;;;;;10.00;6.18;;;;;;;19.91;42.18;101202.63;5092066;28;20041;-60
2023/06/13 02:54:37;;;;;;;9.38;6.22;;;;;;;20.12;41.81;101203.25;5073482;28;20024;-60
2023/06/13 02:57:03;;;;;;;7.80;6.47;;;;;;;19.88;42.56;101200.22;5092305;28;20032;-60
2023/06/13 02:59:28;;;;;;;7.50;6.65;;;;;;;20.00;41.81;101203.56;5112176;28;20077;-60
2023/06/13 03:01:53;;;;;;;14.38;6.65;;;;;;;19.98;42.15;101211.00;5111633;28;20024;-60
2023/06/13 03:04:19;;;;;;;9.80;6.78;;;;;;;20.03;42.05;101198.75;5095176;28;20490;-60
2023/06/13 03:06:46;;;;;;;10.23;6.53;;;;;;;20.04;41.93;101197.72;5099953;28;20034;-60
2023/06/13 03:09:15;;;;;;;12.48;6.18;;;;;;;20.02;41.96;101199.72;5103968;28;20080;-60
2023/06/13 03:11:43;;;;;;;16.90;6.78;;;;;;;19.89;42.16;101200.09;5112164;28;20087;-60
2023/06/13 03:14:09;;;;;;;8.68;6.45;;;;;;;19.98;42.04;101192.94;5112418;28;20020;-60
2023/06/13 03:16:38;;;;;;;13.52;6.80;;;;;;;19.78;42.88;101202.13;5111860;28;20023;-60
2023/06/13 03:19:03;;;;;;;9.68;7.22;;;;;;;19.84;42.91;101205.06;5112158;28;20028;-60
2023/06/13 03:21:30;;;;;;;11.00;6.47;;;;;;;19.88;42.52;101202.91;5111952;28;20068;-60
2023/06/13 03:23:55;;;;;;;9.88;6.80;;;;;;;19.57;43.52;101205.84;5111099;28;20027;-60
2023/06/13 03:26:24;;;;;;;8.55;6.80;;;;;;;19.70;43.38;101203.69;5112086;28;20024;-60
2023/06/13 03:28:49;;;;;;;7.68;6.88;;;;;;;19.58;43.72;101201.28;5094041;28;20106;-60
2023/06/13 03:31:18;;;;;;;10.15;6.60;;;;;;;19.55;44.02;101202.44;5110796;28;20185;-60
2023/06/13 03:33:43;;;;;;;8.25;6.50;;;;;;;19.56;43.86;101189.78;5111990;28;20367;-61
2023/06/13 03:36:11;;;;;;;10.98;6.85;;;;;;;19.32;44.63;101192.97;5111668;28;20386;-60
2023/06/13 03:38:37;;;;;;;13.73;6.93;;;;;;;19.37;44.71;101198.78;5090179;28;20071;-60
2023/06/13 03:41:02;;;;;;;14.95;6.85;;;;;;;19.45;44.29;101198.94;5106852;28;20131;-60
2023/06/13 03:43:28;;;;;;;10.90;6.55;;;;;;;19.18;44.91;101189.75;5107095;28;20528;-60
2023/06/13 03:45:53;;;;;;;9.07;6.78;;;;;;;19.18;44.72;101195.16;5090624;28;20032;-60
2023/06/13 03:48:19;;;;;;;13.73;6.93;;;;;;;19.20;45.64;101192.28;5107478;28;20099;-60
2023/06/13 03:50:44;;;;;;;10.57;6.30;;;;;;;19.21;45.30;101192.16;5106621;28;20481;-60
2023/06/13 03:53:10;;;;;;;13.10;7.13;;;;;;;19.14;45.28;101195.56;5113507;28;20028;-61
2023/06/13 03:55:36;;;;;;;17.33;6.90;;;;;;;19.09;45.96;101200.53;5114554;28;20023;-60
2023/06/13 03:58:04;;;;;;;10.65;6.97;;;;;;;19.20;44.84;101190.44;5115573;28;20027;-60
2023/06/13 04:00:33;;;;;;;8.15;6.65;;;;;;;19.13;46.03;101193.88;5088006;28;20122;-60
2023/06/13 04:03:02;;;;;;;9.00;6.25;;;;;;;19.23;46.29;101200.94;5103080;28;20023;-60
2023/06/13 04:05:27;;;;;;;10.90;6.80;;;;;;;19.27;45.52;101198.81;5115274;28;20025;-60
2023/06/13 04:07:56;;;;;;;12.57;6.30;;;;;;;19.31;45.44;101200.22;5115781;27;20023;-60
2023/06/13 04:10:23;;;;;;;17.33;7.63;;;;;;;19.21;45.77;101197.56;5094129;28;20335;-60
2023/06/13 04:12:49;;;;;;;8.88;5.82;;;;;;;19.12;45.59;101186.75;5093372;28;20102;-60
2023/06/13 04:15:15;;;;;;;10.98;7.43;;;;;;;19.19;45.40;101196.84;5113624;28;20019;-60
2023/06/13 04:17:40;;;;;;;11.55;7.82;;;;;;;19.11;45.94;101195.84;5115329;28;20035;-60
2023/06/13 04:20:06;;;;;;;12.07;6.85;;;;;;;19.18;45.73;101200.53;5112957;28;20115;-60
2023/06/13 04:22:32;;;;;;;9.98;6.93;;;;;;;19.12;46.52;101195.72;5114702;28;20478;-60
2023/06/13 04:24:58;;;;;;;9.85;7.03;;;;;;;19.23;46.08;101197.41;5115403;27;20020;-61
2023/06/13 04:27:28;;;;;;;13.85;7.13;;;;;;;19.11;46.77;101203.94;5095665;28;20019;-61
2023/06/13 04:29:55;;;;;;;8.90;7.70;;;;;;;19.15;46.97;101200.84;5112247;28;20079;-60
2023/06/13 04:32:23;;;;;;;11.32;6.78;;;;;;;19.27;46.52;101206.91;5113952;28;20027;-60
2023/06/13 04:34:53;;;;;;;9.23;6.80;;;;;;;19.32;46.72;101201.91;5095250;28;20523;-60
2023/06/13 04:37:31;;;;;;;10.70;7.53;;;;;;;19.47;46.14;101208.59;5114724;28;20398;-60
2023/06/13 04:39:57;;;;;;;12.55;7.05;;;;;;;19.17;47.21;101201.50;5114190;28;20107;-61
2023/06/13 04:42:27;;;;;;;12.20;7.07;;;;;;;19.46;45.78;101216.81;5122437;27;20031;-60
2023/06/13 04:44:56;;;;;;;10.02;7.30;;;;;;;19.49;45.54;101217.34;5134712;27;20023;-60
2023/06/13 04:47:24;;;;;;;11.00;7.38;;;;;;;19.41;45.60;101219.06;5135335;27;20371;-60
2023/06/13 04:49:51;;;;;;;8.70;7.05;;;;;;;19.49;46.01;101220.06;5134894;27;20023;-60
2023/06/13 04:52:18;;;;;;;13.90;7.90;;;;;;;19.43;45.69;101200.91;5101700;28;20029;-60
2023/06/13 04:54:45;;;;;;;12.02;8.20;;;;;;;19.45;45.71;101215.97;5114339;28;20031;-60
2023/06/13 04:57:12;;;;;;;9.55;7.80;;;;;;;19.47;46.12;101213.09;5114494;28;20019;-60
2023/06/13 04:59:39;;;;;;;10.63;7.28;;;;;;;19.44;46.06;101216.09;5114298;27;20054;-60
2023/06/13 05:02:04;;;;;;;9.45;7.68;;;;;;;19.67;45.73;101227.44;5094404;28;20035;-61
2023/06/13 05:04:30;;;;;;;11.50;7.30;;;;;;;19.70;45.66;101219.88;5094110;28;20030;-60
2023/06/13 05:06:57;;;;;;;14.40;8.07;;;;;;;19.56;46.68;101220.34;5114068;28;20049;-61
2023/06/13 05:09:23;;;;;;;10.73;7.38;;;;;;;19.79;45.85;101233.50;5114359;28;20020;-60
2023/06/13 05:11:49;;;;;;;11.93;7.20;;;;;;;19.76;46.22;101223.84;5114274;28;20024;-60
2023/06/13 05:14:14;;;;;;;13.48;8.02;;;;;;;19.86;45.21;101231.94;5114066;28;20034;-60
2023/06/13 05:16:40;;;;;;;10.60;8.20;;;;;;;19.88;45.33;101232.63;5123498;27;20526;-60
2023/06/13 05:19:06;;;;;;;11.02;7.45;;;;;;;19.97;45.22;101229.00;5115780;27;20015;-60
2023/06/13 05:21:33;;;;;;;17.88;7.68;;;;;;;19.89;45.58;101229.78;5108997;28;20339;-60
2023/06/13 05:23:58;;;;;;;10.70;7.43;;;;;;;19.98;45.19;101240.69;5095247;28;20027;-60
2023/06/13 05:26:24;;;;;;;10.77;7.68;;;;;;;19.95;45.32;101239.97;5095388;28;20023;-61
2023/06/13 05:28:52;;;;;;;11.85;7.45;;;;;;;20.00;45.22;101239.56;5113825;28;20019;-60
2023/06/13 05:31:18;;;;;;;7.75;6.90;;;;;;;20.11;45.12;101241.19;5113225;28;20103;-60
2023/06/13 05:33:43;;;;;;;13.15;7.05;;;;;;;20.29;45.52;101241.25;5114050;27;20444;-60
2023/06/13 05:36:08;;;;;;;11.75;7.13;;;;;;;20.36;44.94;101236.94;5113099;28;20386;-60
2023/06/13 05:38:36;;;;;;;12.82;7.90;;;;;;;20.32;44.97;101235.53;5113536;28;20482;-60
2023/06/13 05:41:01;;;;;;;11.18;7.90;;;;;;;20.51;44.08;101240.00;5113038;28;20499;-60
2023/06/13 05:43:27;;;;;;;10.45;7.55;;;;;;;20.58;44.22;101238.41;5113485;28;20042;-60
2023/06/13 05:45:52;;;;;;;10.90;7.70;;;;;;;20.59;44.18;101238.25;5112994;28;20028;-60
2023/06/13 05:48:18;;;;;;;9.43;7.95;;;;;;;20.72;43.40;101245.16;5113259;28;20466;-60
2023/06/13 05:50:43;;;;;;;12.35;8.05;;;;;;;20.81;43.92;101247.75;5095269;28;20027;-60
2023/06/13 05:53:12;;;;;;;10.45;7.80;;;;;;;20.87;43.83;101246.31;5113238;28;20102;-60
2023/06/13 05:55:38;;;;;;;10.75;7.57;;;;;;;20.96;43.83;101239.97;5113216;28;20024;-60
2023/06/13 05:58:03;;;;;;;8.88;7.50;;;;;;;20.96;43.84;101245.38;5111398;28;20154;-60
2023/06/13 06:00:28;;;;;;;11.60;8.32;;;;;;;21.01;43.72;101240.34;5094278;28;20413;-61
2023/06/13 06:02:54;;;;;;;13.13;8.38;;;;;;;21.08;43.24;101238.72;5094668;28;20020;-60
2023/06/13 06:05:20;;;;;;;14.32;7.57;;;;;;;21.23;42.77;101236.31;5112986;28;20127;-60
2023/06/13 06:07:46;;;;;;;10.25;7.68;;;;;;;21.15;43.59;101249.78;5091221;28;20054;-60
2023/06/13 06:10:12;;;;;;;11.00;7.70;;;;;;;21.18;43.13;101241.34;5112782;28;20062;-60
2023/06/13 06:12:38;;;;;;;12.32;8.13;;;;;;;21.15;42.12;101243.50;5112627;28;20039;-60
2023/06/13 06:15:04;;;;;;;11.82;7.72;;;;;;;21.26;42.77;101252.22;5112163;28;20031;-60
2023/06/13 06:17:30;;;;;;;11.10;7.57;;;;;;;21.36;42.24;101251.31;5112036;28;20051;-60
2023/06/13 06:19:55;;;;;;;10.02;7.68;;;;;;;21.43;41.63;101252.41;5112703;28;20058;-60
2023/06/13 06:22:21;;;;;;;11.55;7.45;;;;;;;21.37;42.16;101236.78;5094845;28;20074;-60
2023/06/13 06:24:47;;;;;;;12.85;8.20;;;;;;;21.46;41.49;101244.81;5113055;27;20036;-60
2023/06/13 06:27:12;;;;;;;11.80;7.03;;;;;;;21.55;41.76;101240.31;5094379;28;20391;-60
2023/06/13 06:29:39;;;;;;;11.23;7.95;;;;;;;21.68;42.15;101239.91;5108687;28;20062;-60
2023/06/13 06:32:05;;;;;;;11.02;7.72;;;;;;;21.76;41.56;101243.47;5092214;28;20410;-60
2023/06/13 06:34:31;;;;;;;11.15;7.85;;;;;;;21.89;42.38;101251.19;5092452;28;20541;-60
2023/06/13 06:36:56;;;;;;;11.27;7.60;;;;;;;22.00;42.25;101259.03;5096348;28;20110;-60
2023/06/13 06:39:22;;;;;;;11.50;8.75;;;;;;;22.01;41.39;101240.91;5111833;27;20052;-60
2023/06/13 06:41:48;;;;;;;8.75;7.45;;;;;;;22.01;40.83;101251.75;5096891;28;20092;-60
2023/06/13 06:44:13;;;;;;;24.02;8.63;;;;;;;21.92;42.16;101245.44;5092320;28;20062;-61
2023/06/13 06:46:38;;;;;;;12.48;7.80;;;;;;;21.89;42.50;101248.47;5106127;28;20409;-61
2023/06/13 06:49:07;;;;;;;14.95;7.90;;;;;;;21.84;41.97;101239.13;5094136;28;20135;-61
2023/06/13 06:51:32;;;;;;;10.43;7.30;;;;;;;21.93;42.54;101240.88;5111561;28;20057;-61
2023/06/13 06:53:58;;;;;;;10.02;8.02;;;;;;;21.90;42.57;101239.31;5112209;28;20441;-60
2023/06/13 06:56:23;;;;;;;9.00;7.45;;;;;;;22.02;42.82;101241.75;5091388;28;20108;-61
2023/06/13 06:58:48;;;;;;;13.00;7.90;;;;;;;22.12;42.89;101240.63;5109474;28;20073;-61
2023/06/13 07:01:15;;;;;;;10.18;8.13;;;;;;;22.12;42.08;101231.63;5111670;28;20051;-61
2023/06/13 07:03:41;;;;;;;9.95;7.40;;;;;;;22.16;42.81;101241.16;5111210;28;20394;-61
2023/06/13 07:06:07;;;;;;;12.98;7.47;;;;;;;22.25;42.88;101221.22;5112118;28;20049;-64
2023/06/13 07:08:34;;;;;;;10.07;8.10;;;;;;;22.39;41.63;101227.91;5112424;28;20028;-65
2023/06/13 07:11:01;;;;;;;9.05;7.07;;;;;;;22.58;40.83;101245.72;5111872;28;20470;-62
2023/06/13 07:13:27;;;;;;;8.77;6.65;;;;;;;22.71;41.95;101246.13;5112165;28;20026;-63
2023/06/13 07:15:52;;;;;;;8.82;7.60;;;;;;;22.72;40.22;101238.81;5111639;28;20020;-67
2023/06/13 07:18:18;;;;;;;13.35;7.30;;;;;;;22.81;40.26;101252.22;5111116;28;20039;-65
2023/06/13 07:20:45;;;;;;;15.93;7.35;;;;;;;22.97;40.37;101256.00;5112022;28;20028;-63
2023/06/13 07:23:12;;;;;;;9.35;6.97;;;;;;;22.98;39.94;101255.00;5112189;28;20490;-64
2023/06/13 07:25:40;;;;;;;8.60;7.78;;;;;;;23.03;39.86;101249.91;5110378;28;20050;-64
2023/06/13 07:28:06;;;;;;;12.38;7.47;;;;;;;23.07;40.25;101249.41;5114411;28;20023;-66
2023/06/13 07:30:32;;;;;;;11.90;7.05;;;;;;;23.21;39.31;101247.06;5114286;28;20076;-66
2023/06/13 07:32:57;;;;;;;10.02;7.50;;;;;;;23.15;39.24;101250.41;5116788;28;20020;-66
2023/06/13 07:35:23;;;;;;;11.38;7.63;;;;;;;23.18;39.26;101247.34;5116233;28;20470;-61
2023/06/13 07:37:55;;;;;;;11.20;7.72;;;;;;;23.01;39.84;101236.50;5113204;28;20028;-63
2023/06/13 07:40:21;;;;;;;10.00;7.60;;;;;;;23.13;40.51;101242.44;5094336;28;20080;-64
2023/06/13 07:42:50;;;;;;;9.20;7.57;;;;;;;23.24;38.95;101249.41;5053929;28;20032;-66
2023/06/13 07:45:15;;;;;;;11.45;7.45;;;;;;;23.22;39.71;101235.16;5054456;28;20032;-65
2023/06/13 07:47:40;;;;;;;11.85;7.30;;;;;;;23.31;39.72;101240.41;5065047;28;20029;-64
2023/06/13 07:50:06;;;;;;;12.75;6.90;;;;;;;23.48;39.97;101246.69;5073726;28;20078;-65
2023/06/13 07:52:32;;;;;;;12.60;7.68;;;;;;;23.51;39.44;101250.91;5072126;28;20525;-64
2023/06/13 07:54:58;;;;;;;11.32;7.68;;;;;;;23.60;38.84;101252.59;5063998;28;20028;-64
2023/06/13 07:57:23;;;;;;;9.43;6.80;;;;;;;23.63;39.04;101249.53;5064042;28;20025;-64
2023/06/13 07:59:49;;;;;;;13.73;7.78;;;;;;;23.71;38.80;101252.28;5067901;28;20391;-65
2023/06/13 08:02:14;;;;;;;11.80;7.45;;;;;;;23.76;39.72;101241.72;5073334;28;20034;-64
2023/06/13 08:04:44;;;;;;;12.60;7.57;;;;;;;23.87;39.75;101242.38;5070938;28;20471;-64
2023/06/13 08:07:09;;;;;;;14.68;7.32;;;;;;;23.89;38.63;101251.22;5072562;28;20120;-64
2023/06/13 08:09:34;;;;;;;9.93;8.13;;;;;;;23.85;38.62;101249.84;5067166;28;20020;-66
2023/06/13 08:12:00;;;;;;;9.23;6.57;;;;;;;23.95;39.99;101256.81;5061515;28;20552;-66
2023/06/13 08:14:25;;;;;;;12.93;7.15;;;;;;;24.15;38.85;101259.09;5068538;28;20025;-61
2023/06/13 08:16:51;;;;;;;9.27;7.13;;;;;;;24.20;39.39;101254.81;5069456;28;20089;-61
2023/06/13 08:19:16;;;;;;;10.90;7.30;;;;;;;24.27;39.11;101249.56;5070145;28;20078;-60
2023/06/13 08:21:42;;;;;;;11.70;7.00;;;;;;;24.31;38.50;101233.72;5069616;28;20021;-61
2023/06/13 08:24:10;;;;;;;16.10;8.23;;;;;;;24.24;38.27;101249.91;5069803;28;20733;-61
2023/06/13 08:26:35;;;;;;;16.58;7.53;;;;;;;24.25;38.73;101235.28;5070722;28;20051;-61
2023/06/13 08:29:01;;;;;;;12.15;7.78;;;;;;;24.31;38.35;101253.59;5071727;28;20543;-60
2023/06/13 08:31:27;;;;;;;13.27;7.20;;;;;;;24.31;38.30;101250.88;5073317;28;20020;-61
2023/06/13 08:33:55;;;;;;;9.15;6.75;;;;;;;24.34;38.83;101242.38;5064869;28;20028;-61
2023/06/13 08:36:25;;;;;;;13.95;7.32;;;;;;;24.47;39.89;101239.09;5073324;28;20028;-60
2023/06/13 08:38:51;;;;;;;9.95;7.10;;;;;;;24.58;38.16;101248.75;5073200;28;20364;-59
2023/06/13 08:41:18;;;;;;;10.90;7.32;;;;;;;24.46;37.99;101232.81;5113255;27;20448;-61
2023/06/13 08:43:46;;;;;;;11.55;7.55;;;;;;;24.57;38.71;101238.91;5096247;28;20430;-61
2023/06/13 08:46:12;;;;;;;13.48;8.05;;;;;;;24.59;38.80;101237.69;5113824;28;20429;-63
2023/06/13 08:48:37;;;;;;;11.98;7.55;;;;;;;24.67;38.30;101232.19;5113838;28;20039;-63
2023/06/13 08:51:04;;;;;;;18.40;6.82;;;;;;;24.90;37.67;101234.06;5114143;28;20384;-63
2023/06/13 08:53:32;;;;;;;9.95;6.90;;;;;;;24.93;36.93;101226.38;5096302;28;20088;-62
2023/06/13 08:56:07;;;;;;;10.73;6.47;;;;;;;24.99;36.48;101221.25;5110086;27;20027;-63
2023/06/13 08:58:40;;;;;;;8.48;6.45;;;;;;;25.12;36.57;101216.91;5112940;27;20062;-63
2023/06/13 09:01:06;;;;;;;11.57;6.60;;;;;;;25.07;35.70;101213.88;5108672;28;20087;-63
2023/06/13 09:03:37;;;;;;;9.15;7.05;;;;;;;25.25;36.34;101212.72;5091915;28;20030;-63
2023/06/13 09:06:04;;;;;;;10.48;7.22;;;;;;;25.41;35.94;101211.72;5082580;28;20024;-63
2023/06/13 09:08:31;;;;;;;10.10;7.03;;;;;;;25.46;35.50;101215.59;5108805;27;20028;-67
2023/06/13 09:10:58;;;;;;;14.98;7.03;;;;;;;25.50;35.06;101214.19;5113226;28;20047;-64
2023/06/13 09:13:25;;;;;;;17.58;7.15;;;;;;;25.63;35.64;101216.28;5113542;28;20027;-63
2023/06/13 09:15:51;;;;;;;16.23;7.40;;;;;;;25.76;34.42;101223.78;5092901;28;20020;-65
2023/06/13 09:18:18;;;;;;;12.35;7.40;;;;;;;25.77;35.28;101222.78;5093914;28;20072;-65
2023/06/13 09:20:44;;;;;;;11.70;7.25;;;;;;;25.81;35.22;101224.06;5095337;28;20015;-63
2023/06/13 09:23:15;;;;;;;12.02;6.72;;;;;;;25.89;34.82;101231.34;5113813;28;20031;-64
2023/06/13 09:25:41;;;;;;;10.13;6.72;;;;;;;25.74;34.05;101223.16;5109454;28;20454;-65
2023/06/13 09:28:26;;;;;;;13.20;7.03;;;;;;;25.91;35.28;101221.09;5113198;28;20028;-66
2023/06/13 09:30:52;;;;;;;10.45;6.32;;;;;;;26.15;35.80;101218.09;5108569;28;20065;-65
2023/06/13 09:33:17;;;;;;;12.43;7.15;;;;;;;25.96;33.11;101208.59;5112923;28;20031;-65
2023/06/13 09:35:43;;;;;;;12.98;6.75;;;;;;;26.03;34.24;101201.34;5110076;28;20038;-66
2023/06/13 09:38:11;;;;;;;14.40;6.57;;;;;;;26.18;34.57;101204.06;5094457;28;20107;-65
2023/06/13 09:40:37;;;;;;;14.93;6.70;;;;;;;26.27;34.51;101205.63;5109663;28;20047;-66
2023/06/13 09:43:03;;;;;;;14.40;6.13;;;;;;;26.35;34.49;101209.28;5111097;28;20028;-66
2023/06/13 09:45:31;;;;;;;12.27;6.15;;;;;;;26.47;33.71;101197.69;5112877;28;20441;-65
2023/06/13 09:47:57;;;;;;;13.93;6.50;;;;;;;26.61;32.98;101206.88;5113373;27;20375;-65
2023/06/13 09:50:22;;;;;;;17.95;7.30;;;;;;;26.59;32.81;101206.25;5091808;28;20049;-65
2023/06/13 09:52:48;;;;;;;18.77;6.90;;;;;;;26.66;32.12;101217.22;5084229;28;20478;-65
2023/06/13 09:55:13;;;;;;;8.52;5.95;;;;;;;26.81;31.74;101220.75;5111158;28;20034;-64
2023/06/13 09:57:38;;;;;;;10.82;6.40;;;;;;;26.70;31.80;101204.88;5109003;28;20079;-61
2023/06/13 10:00:10;;;;;;;11.07;5.80;;;;;;;26.67;31.23;101203.38;5092117;28;20091;-61
2023/06/13 10:02:38;;;;;;;11.50;6.28;;;;;;;26.80;32.31;101199.97;5103243;28;20032;-61
2023/06/13 10:05:03;;;;;;;12.48;6.32;;;;;;;26.86;31.35;101201.91;5106131;28;20024;-61
2023/06/13 10:07:31;;;;;;;9.65;6.88;;;;;;;26.94;30.93;101198.19;5077418;28;20027;-60
2023/06/13 10:09:57;;;;;;;8.52;6.03;;;;;;;26.94;30.78;101193.59;5091681;28;20017;-61
2023/06/13 10:12:24;;;;;;;8.18;5.93;;;;;;;26.96;30.51;101193.38;5092044;28;20024;-60
2023/06/13 10:15:01;;;;;;;10.00;6.10;;;;;;;27.17;29.90;101204.28;5104956;28;20020;-61
2023/06/13 10:17:35;;;;;;;7.70;5.72;;;;;;;27.13;29.83;101191.22;5112805;28;20103;-61
2023/06/13 10:20:10;;;;;;;6.32;5.13;;;;;;;27.00;29.06;101189.19;5112777;28;20471;-61
2023/06/13 10:22:40;;;;;;;12.05;5.75;;;;;;;27.28;29.95;101204.81;5094656;28;20016;-61
2023/06/13 10:25:08;;;;;;;10.18;5.45;;;;;;;27.37;28.96;101198.16;5112314;28;20478;-61
2023/06/13 10:27:43;;;;;;;9.13;5.47;;;;;;;27.43;29.40;101202.81;5094440;28;20028;-60
2023/06/13 10:30:32;;;;;;;12.10;6.07;;;;;;;27.42;29.65;101206.59;5111692;28;20057;-60
2023/06/13 10:33:16;;;;;;;9.98;5.60;;;;;;;27.47;28.77;101198.63;5074070;28;20027;-61
2023/06/13 10:35:50;;;;;;;10.10;5.00;;;;;;;27.53;30.19;101199.72;5092074;28;20028;-61
2023/06/13 10:38:43;;;;;;;11.60;5.80;;;;;;;27.67;29.04;101196.03;5091692;28;20040;-61
2023/06/13 10:41:09;;;;;;;8.93;5.78;;;;;;;27.60;29.31;101192.44;5111057;28;20039;-61
2023/06/13 10:43:40;;;;;;;8.07;6.00;;;;;;;27.41;28.98;101199.44;5112235;28;20039;-61
2023/06/13 10:46:07;;;;;;;9.95;5.40;;;;;;;27.60;28.87;101206.09;5093675;28;20028;-60
2023/06/13 10:48:46;;;;;;;12.48;6.05;;;;;;;27.58;28.84;101203.56;5112346;28;20031;-60
2023/06/13 10:51:14;;;;;;;10.70;6.47;;;;;;;27.54;29.72;101194.06;5111715;28;20103;-59
2023/06/13 10:53:40;;;;;;;11.03;5.83;;;;;;;27.64;28.88;101191.81;5112186;28;20035;-61
2023/06/13 10:56:08;;;;;;;9.50;5.63;;;;;;;27.86;28.34;101197.25;5112185;28;20024;-60
2023/06/13 10:58:35;;;;;;;7.78;5.07;;;;;;;27.93;27.80;101203.59;5112242;28;20024;-60
2023/06/13 11:01:25;;;;;;;8.93;5.30;;;;;;;27.93;27.46;101191.81;5111506;28;20051;-60
2023/06/13 11:03:50;;;;;;;9.43;5.85;;;;;;;28.03;27.93;101193.13;5112169;28;20016;-61
2023/06/13 11:06:16;;;;;;;7.13;5.13;;;;;;;27.99;27.04;101186.34;5093923;28;20039;-60
2023/06/13 11:08:42;;;;;;;6.45;5.35;;;;;;;27.99;27.38;101183.63;5111898;28;20043;-60
2023/06/13 11:11:09;;;;;;;6.63;5.13;;;;;;;28.14;26.35;101182.63;5111796;28;20023;-61
2023/06/13 11:13:35;;;;;;;10.80;5.00;;;;;;;28.17;27.35;101183.06;5112251;28;20085;-60
2023/06/13 11:16:19;;;;;;;6.03;5.43;;;;;;;28.14;25.37;101185.38;5093491;28;20448;-61
2023/06/13 11:18:48;;;;;;;10.00;5.40;;;;;;;28.07;25.98;101182.63;5093766;28;20062;-61
2023/06/13 11:21:14;;;;;;;5.63;4.78;;;;;;;28.13;26.60;101181.81;5092929;28;20042;-60